Time;durP1;ratioP1;P1;durP2;ratioP2;P2;SDS_P1;SDS_P2;PMS_P1;PMS_P2;Temp;Humidity;BMP_temperature;BMP_pressure;BME280_temperature;BME280_humidity;BME280_pressure;Samples;Min_cycle;Max_cycle;Signal;HPM_P1;HPM_P2
2024/01/09 00:02:25;;;;;;;9.02;5.30;;;-9.00;98.50;;;;;;5016865;28;20030;-81
2024/01/09 00:04:51;;;;;;;8.57;5.97;;;-9.00;98.50;;;;;;5032904;28;20509;-81
2024/01/09 00:07:17;;;;;;;8.95;4.28;;;-9.00;98.50;;;;;;5021060;28;20022;-81
2024/01/09 00:09:42;;;;;;;5.35;3.60;;;-9.00;98.50;;;;;;5017387;28;20034;-81
2024/01/09 00:12:09;;;;;;;11.00;4.57;;;-8.90;98.60;;;;;;5017282;28;20095;-82
2024/01/09 00:14:35;;;;;;;16.50;4.33;;;-8.90;98.60;;;;;;5029353;28;20164;-81
2024/01/09 00:17:00;;;;;;;9.43;4.70;;;-8.90;98.60;;;;;;5019176;28;20054;-82
2024/01/09 00:19:26;;;;;;;8.00;4.50;;;-8.80;98.60;;;;;;5020203;28;20026;-81
2024/01/09 00:21:53;;;;;;;7.78;4.80;;;-8.80;98.60;;;;;;5019320;28;20030;-80
2024/01/09 00:24:18;;;;;;;7.82;5.35;;;-8.80;98.60;;;;;;5007559;28;20022;-81
2024/01/09 00:26:46;;;;;;;7.25;5.65;;;-8.70;98.70;;;;;;5016450;28;20030;-81
2024/01/09 00:29:11;;;;;;;;;;;-8.70;98.70;;;;;;5018985;28;20097;-82
2024/01/09 00:31:37;;;;;;;9.82;5.22;;;-8.70;98.70;;;;;;5018336;28;19953;-80
2024/01/09 00:34:03;;;;;;;7.80;5.15;;;-8.70;98.70;;;;;;5012094;28;20030;-81
2024/01/09 00:36:29;;;;;;;5.63;4.13;;;-8.70;98.60;;;;;;5020140;28;20014;-81
2024/01/09 00:38:55;;;;;;;5.65;4.38;;;-8.70;98.60;;;;;;5020489;28;20037;-81
2024/01/09 00:41:21;;;;;;;7.05;5.00;;;-8.70;98.60;;;;;;5021163;28;20475;-82
2024/01/09 00:43:47;;;;;;;8.43;5.50;;;-8.70;98.80;;;;;;5021444;28;20034;-81
2024/01/09 00:46:12;;;;;;;14.45;6.53;;;-8.70;98.90;;;;;;5016625;28;20022;-81
2024/01/09 00:48:38;;;;;;;8.05;5.10;;;-8.70;98.80;;;;;;5017782;28;20037;-80
2024/01/09 00:51:04;;;;;;;5.70;4.00;;;-8.70;98.80;;;;;;5021812;28;20054;-81
2024/01/09 00:53:30;;;;;;;10.20;5.35;;;-8.60;98.80;;;;;;5015273;28;20033;-81
2024/01/09 00:55:56;;;;;;;6.50;4.53;;;-8.60;98.70;;;;;;5013373;28;20172;-81
2024/01/09 00:58:23;;;;;;;12.85;4.97;;;-8.60;98.60;;;;;;5014874;28;20529;-81
2024/01/09 01:00:49;;;;;;;7.60;4.82;;;-8.70;98.50;;;;;;5000969;28;20033;-81
2024/01/09 01:03:15;;;;;;;6.65;4.32;;;-8.60;98.70;;;;;;5017323;28;20495;-82
2024/01/09 01:05:40;;;;;;;4.63;3.83;;;-8.60;98.80;;;;;;5015816;28;20041;-80
2024/01/09 01:08:06;;;;;;;8.20;5.05;;;-8.60;98.70;;;;;;5018029;28;20036;-81
2024/01/09 01:10:33;;;;;;;5.93;3.08;;;-8.60;98.70;;;;;;5019520;28;20077;-81
2024/01/09 01:12:59;;;;;;;3.95;2.47;;;-8.60;98.80;;;;;;5017242;28;20018;-82
2024/01/09 01:15:25;;;;;;;7.22;3.65;;;-8.60;98.90;;;;;;5016512;28;20040;-81
2024/01/09 01:17:51;;;;;;;9.63;3.25;;;-8.60;98.90;;;;;;5016524;28;20029;-81
2024/01/09 01:20:16;;;;;;;5.40;3.40;;;-8.60;99.00;;;;;;5015773;28;20022;-81
2024/01/09 01:22:42;;;;;;;5.32;3.35;;;-8.60;99.00;;;;;;5016342;28;20430;-79
2024/01/09 01:25:09;;;;;;;3.25;2.47;;;-8.60;98.90;;;;;;5038896;28;20422;-80
2024/01/09 01:27:35;;;;;;;5.45;3.42;;;-8.60;99.00;;;;;;5041881;28;20112;-80
2024/01/09 01:30:01;;;;;;;3.88;2.58;;;-8.50;99.20;;;;;;5046674;28;20042;-79
2024/01/09 01:32:27;;;;;;;5.43;3.67;;;-8.60;99.00;;;;;;5037985;28;20075;-80
2024/01/09 01:34:53;;;;;;;5.43;3.15;;;-8.60;99.10;;;;;;5045085;28;20021;-80
2024/01/09 01:37:18;;;;;;;6.80;4.28;;;-8.60;99.10;;;;;;5032506;28;20045;-80
2024/01/09 01:39:44;;;;;;;5.07;3.10;;;-8.50;99.10;;;;;;5016054;28;20437;-81
2024/01/09 01:42:10;;;;;;;9.98;3.80;;;-8.60;99.10;;;;;;5033789;28;20051;-79
2024/01/09 01:44:36;;;;;;;3.97;2.80;;;-8.60;99.20;;;;;;5015392;28;20029;-81
2024/01/09 01:47:02;;;;;;;6.63;3.25;;;-8.50;99.30;;;;;;5030633;28;20108;-82
2024/01/09 01:49:29;;;;;;;5.43;3.93;;;-8.50;99.20;;;;;;5032959;28;20096;-81
2024/01/09 01:51:55;;;;;;;5.63;3.07;;;-8.50;99.20;;;;;;5033971;28;20045;-80
2024/01/09 01:54:22;;;;;;;5.00;2.80;;;-8.50;99.20;;;;;;5047057;28;20029;-82
2024/01/09 01:56:49;;;;;;;6.35;2.92;;;-8.40;99.30;;;;;;5033350;28;20096;-80
2024/01/09 01:59:17;;;;;;;3.17;2.88;;;-8.40;99.30;;;;;;5033294;28;20032;-79
2024/01/09 02:01:45;;;;;;;5.50;3.72;;;-8.40;99.40;;;;;;5040120;28;20049;-80
2024/01/09 02:04:12;;;;;;;5.35;3.38;;;-8.40;99.40;;;;;;5041676;28;20055;-80
2024/01/09 02:06:38;;;;;;;5.22;3.33;;;-8.40;99.20;;;;;;5037245;28;20052;-82
2024/01/09 02:09:04;;;;;;;5.07;2.90;;;-8.30;98.90;;;;;;5033062;28;20025;-81
2024/01/09 02:11:31;;;;;;;4.40;3.10;;;-8.30;98.90;;;;;;5032962;28;20029;-82
2024/01/09 02:13:57;;;;;;;3.63;2.22;;;-8.30;99.00;;;;;;5033288;28;20108;-81
2024/01/09 02:16:23;;;;;;;3.97;3.08;;;-8.30;99.00;;;;;;5032947;28;20053;-81
2024/01/09 02:18:49;;;;;;;4.13;3.38;;;-8.30;99.00;;;;;;5030831;28;20420;-81
2024/01/09 02:21:15;;;;;;;4.82;2.78;;;-8.20;99.00;;;;;;5032968;28;20057;-81
2024/01/09 02:23:41;;;;;;;5.53;2.95;;;-8.20;99.10;;;;;;5047070;28;20108;-81
2024/01/09 02:26:08;;;;;;;5.15;3.42;;;-8.20;99.10;;;;;;5015530;28;20102;-80
2024/01/09 02:28:45;;;;;;;4.65;2.92;;;-8.20;99.10;;;;;;5032990;28;20021;-82
2024/01/09 02:31:11;;;;;;;;;;;-8.20;99.20;;;;;;5029728;28;20056;-81
2024/01/09 02:33:39;;;;;;;4.28;2.95;;;-8.20;99.10;;;;;;5034085;28;20358;-80
2024/01/09 02:36:04;;;;;;;;;;;-8.10;99.10;;;;;;5036315;28;20160;-81
2024/01/09 02:38:30;;;;;;;3.45;2.65;;;-8.20;99.10;;;;;;5033540;28;19940;-80
2024/01/09 02:40:56;;;;;;;5.32;2.90;;;-8.20;99.10;;;;;;5047020;28;20121;-82
2024/01/09 02:43:22;;;;;;;6.65;2.60;;;-8.20;99.20;;;;;;5032466;28;20036;-80
2024/01/09 02:45:48;;;;;;;5.18;2.80;;;-8.20;99.30;;;;;;5032376;28;20031;-81
2024/01/09 02:48:14;;;;;;;4.47;2.42;;;-8.20;99.30;;;;;;5032590;28;20108;-79
2024/01/09 02:50:40;;;;;;;6.50;3.80;;;-8.20;99.10;;;;;;5034244;28;20099;-81
2024/01/09 02:53:05;;;;;;;5.35;3.55;;;-8.10;99.20;;;;;;5042003;28;20104;-81
2024/01/09 02:55:31;;;;;;;5.38;3.45;;;-8.10;99.20;;;;;;5053304;28;20108;-80
2024/01/09 02:57:57;;;;;;;5.45;4.20;;;-8.10;99.20;;;;;;5032825;28;20100;-81
2024/01/09 03:00:23;;;;;;;5.25;3.20;;;-8.10;99.20;;;;;;5032813;28;20022;-80
2024/01/09 03:02:49;;;;;;;4.18;3.17;;;-8.00;99.30;;;;;;5038870;28;20032;-82
2024/01/09 03:05:14;;;;;;;4.75;3.05;;;-8.00;99.40;;;;;;5037328;28;20018;-82
2024/01/09 03:07:40;;;;;;;7.30;3.35;;;-8.00;99.40;;;;;;5036823;28;20021;-81
2024/01/09 03:10:07;;;;;;;5.35;3.15;;;-8.00;99.40;;;;;;5038878;28;20049;-79
2024/01/09 03:12:33;;;;;;;5.60;3.28;;;-8.00;99.30;;;;;;5038614;28;20021;-79
2024/01/09 03:14:59;;;;;;;4.88;3.83;;;-8.00;99.20;;;;;;5038664;28;20108;-79
2024/01/09 03:17:24;;;;;;;5.13;3.85;;;-8.00;99.20;;;;;;5038539;28;20079;-80
2024/01/09 03:19:50;;;;;;;6.82;3.67;;;-8.00;99.20;;;;;;5020722;28;20030;-81
2024/01/09 03:22:17;;;;;;;3.97;2.47;;;-7.90;99.20;;;;;;5038774;28;20045;-80
2024/01/09 03:24:43;;;;;;;4.05;3.22;;;-7.90;99.00;;;;;;5037653;28;20052;-80
2024/01/09 03:27:09;;;;;;;4.60;3.50;;;-7.90;99.10;;;;;;5052316;28;20051;-81
2024/01/09 03:29:35;;;;;;;8.60;2.88;;;-7.90;99.10;;;;;;5037687;28;20104;-81
2024/01/09 03:32:01;;;;;;;4.93;3.00;;;-7.90;98.90;;;;;;5040333;28;20510;-81
2024/01/09 03:34:26;;;;;;;3.28;2.15;;;-7.90;98.80;;;;;;5025408;28;20033;-79
2024/01/09 03:36:52;;;;;;;5.53;3.30;;;-7.90;99.00;;;;;;5054261;28;20025;-80
2024/01/09 03:39:18;;;;;;;7.10;3.45;;;-7.90;98.80;;;;;;5053129;28;20057;-80
2024/01/09 03:41:44;;;;;;;3.25;2.33;;;-7.80;98.80;;;;;;5019748;28;21531;-81
2024/01/09 03:44:12;;;;;;;5.07;3.05;;;-7.80;98.80;;;;;;5039984;28;20075;-81
2024/01/09 03:46:38;;;;;;;3.47;2.85;;;-7.80;98.60;;;;;;5044077;28;20021;-81
2024/01/09 03:49:04;;;;;;;3.97;2.85;;;-7.80;98.40;;;;;;5022113;28;20075;-79
2024/01/09 03:51:30;;;;;;;4.40;2.85;;;-7.80;98.00;;;;;;5021111;28;20048;-80
2024/01/09 03:53:56;;;;;;;5.22;3.20;;;-7.80;97.90;;;;;;5038103;28;20032;-80
2024/01/09 03:56:24;;;;;;;4.10;2.88;;;-7.80;97.80;;;;;;5038100;28;20479;-81
2024/01/09 03:58:51;;;;;;;4.13;2.13;;;-7.80;97.80;;;;;;5039025;28;20017;-82
2024/01/09 04:01:17;;;;;;;3.13;2.38;;;-7.70;97.80;;;;;;5020276;28;20068;-81
2024/01/09 04:03:43;;;;;;;11.40;3.85;;;-7.80;97.50;;;;;;5020984;28;20044;-81
2024/01/09 04:06:09;;;;;;;4.07;3.08;;;-7.80;97.60;;;;;;5021437;28;20107;-82
2024/01/09 04:08:35;;;;;;;6.80;3.95;;;-7.80;97.30;;;;;;5039138;28;20389;-82
2024/01/09 04:11:04;;;;;;;5.32;3.25;;;-7.80;97.50;;;;;;5039338;28;20034;-80
2024/01/09 04:13:30;;;;;;;2.50;2.10;;;-7.80;97.80;;;;;;5040343;28;20013;-81
2024/01/09 04:15:55;;;;;;;4.43;3.22;;;-7.80;97.70;;;;;;5040058;28;20544;-82
2024/01/09 04:18:21;;;;;;;3.25;2.15;;;-7.80;97.90;;;;;;5038113;28;20021;-82
2024/01/09 04:20:48;;;;;;;7.85;3.22;;;-7.80;98.10;;;;;;5025560;28;20056;-81
2024/01/09 04:23:14;;;;;;;6.10;3.35;;;-7.80;97.90;;;;;;5056462;28;20466;-81
2024/01/09 04:25:40;;;;;;;6.85;3.63;;;-7.80;98.00;;;;;;5019354;28;20040;-82
2024/01/09 04:28:06;;;;;;;7.75;4.28;;;-7.80;98.30;;;;;;5034583;28;20036;-81
2024/01/09 04:30:32;;;;;;;7.55;2.67;;;-7.80;98.10;;;;;;5041873;28;20037;-82
2024/01/09 04:32:57;;;;;;;5.90;3.58;;;-7.80;98.20;;;;;;5040826;28;20033;-81
2024/01/09 04:35:26;;;;;;;4.03;2.97;;;-7.80;98.00;;;;;;5041741;28;20410;-80
2024/01/09 04:37:52;;;;;;;3.22;2.08;;;-7.80;98.00;;;;;;5045655;28;20024;-82
2024/01/09 04:40:18;;;;;;;10.63;3.05;;;-7.70;98.10;;;;;;5039732;28;20041;-81
2024/01/09 04:42:44;;;;;;;4.30;3.33;;;-7.80;98.00;;;;;;5035376;28;20026;-83
2024/01/09 04:45:10;;;;;;;3.95;2.63;;;-7.80;98.00;;;;;;5034981;28;20025;-82
2024/01/09 04:47:36;;;;;;;3.92;2.97;;;-7.80;98.00;;;;;;5033573;28;20034;-82
2024/01/09 04:50:02;;;;;;;6.93;3.63;;;-7.80;97.90;;;;;;5034414;28;20044;-82
2024/01/09 04:52:28;;;;;;;5.18;3.42;;;-7.70;98.00;;;;;;5034342;28;20057;-80
2024/01/09 04:54:54;;;;;;;7.90;3.75;;;-7.70;97.90;;;;;;5034336;28;20391;-82
2024/01/09 04:57:20;;;;;;;3.45;2.53;;;-7.80;97.70;;;;;;5016562;28;20387;-83
2024/01/09 04:59:47;;;;;;;4.75;3.20;;;-7.80;97.80;;;;;;5034572;28;20026;-82
2024/01/09 05:02:13;;;;;;;4.20;2.50;;;-7.70;98.00;;;;;;5033623;28;20077;-84
2024/01/09 05:04:39;;;;;;;3.75;2.85;;;-7.70;98.00;;;;;;5033757;28;20034;-83
2024/01/09 05:07:05;;;;;;;4.93;3.13;;;-7.70;98.00;;;;;;5034438;28;20093;-82
2024/01/09 05:09:31;;;;;;;3.80;2.72;;;-7.70;97.90;;;;;;5033939;28;21697;-81
2024/01/09 05:11:57;;;;;;;3.92;2.78;;;-7.70;97.80;;;;;;5034220;28;20120;-84
2024/01/09 05:14:23;;;;;;;4.43;2.17;;;-7.70;97.80;;;;;;5016909;28;20028;-82
2024/01/09 05:16:48;;;;;;;5.78;3.70;;;-7.70;97.70;;;;;;5034359;28;20025;-83
2024/01/09 05:19:14;;;;;;;5.15;2.85;;;-7.70;97.80;;;;;;5016987;28;20026;-83
2024/01/09 05:21:40;;;;;;;6.93;3.83;;;-7.70;97.90;;;;;;5034562;28;20380;-82
2024/01/09 05:24:06;;;;;;;5.57;3.13;;;-7.70;97.90;;;;;;5033798;28;20108;-82
2024/01/09 05:26:32;;;;;;;10.38;3.67;;;-7.70;97.90;;;;;;5036964;28;20033;-82
2024/01/09 05:28:58;;;;;;;7.88;3.67;;;-7.70;97.90;;;;;;5041492;28;20025;-79
2024/01/09 05:31:24;;;;;;;5.05;3.55;;;-7.60;98.10;;;;;;5033174;28;20048;-82
2024/01/09 05:33:50;;;;;;;5.70;3.23;;;-7.60;98.20;;;;;;5033752;28;20045;-83
2024/01/09 05:36:22;;;;;;;4.70;2.10;;;-7.60;98.30;;;;;;5033763;28;20033;-83
2024/01/09 05:38:51;;;;;;;4.97;3.08;;;-7.50;98.10;;;;;;5033999;28;20020;-82
2024/01/09 05:41:23;;;;;;;7.15;3.13;;;-7.60;97.50;;;;;;5034425;28;20075;-82
2024/01/09 05:43:51;;;;;;;4.55;3.75;;;-7.50;97.60;;;;;;5022086;28;20437;-82
2024/01/09 05:46:17;;;;;;;4.35;3.05;;;-7.50;97.60;;;;;;5015578;28;20453;-81
2024/01/09 05:48:44;;;;;;;4.63;3.10;;;-7.50;97.50;;;;;;5033450;28;20053;-80
2024/01/09 05:51:10;;;;;;;3.28;2.47;;;-7.50;97.40;;;;;;5030904;28;20042;-82
2024/01/09 05:53:37;;;;;;;5.80;3.77;;;-7.50;97.60;;;;;;5034205;28;20109;-83
2024/01/09 05:56:06;;;;;;;3.42;3.08;;;-7.50;97.80;;;;;;5032240;28;20262;-80
2024/01/09 05:58:33;;;;;;;8.23;3.40;;;-7.50;97.80;;;;;;5036745;28;20107;-83
2024/01/09 06:00:59;;;;;;;8.35;3.63;;;-7.50;98.20;;;;;;5045848;28;20025;-88
2024/01/09 06:03:25;;;;;;;5.80;3.20;;;-7.50;98.00;;;;;;5031028;28;20434;-86
2024/01/09 06:05:51;;;;;;;6.53;4.38;;;-7.50;98.10;;;;;;5038904;28;20021;-86
2024/01/09 06:08:17;;;;;;;6.38;3.13;;;-7.50;98.20;;;;;;5036589;28;20010;-86
2024/01/09 06:10:43;;;;;;;4.72;2.50;;;-7.50;98.10;;;;;;5038270;28;20064;-86
2024/01/09 06:13:08;;;;;;;2.78;2.47;;;-7.40;97.90;;;;;;5025533;28;20017;-86
2024/01/09 06:15:34;;;;;;;4.35;3.05;;;-7.50;97.70;;;;;;5019361;28;20029;-85
2024/01/09 06:18:00;;;;;;;6.05;3.50;;;-7.50;97.70;;;;;;5036541;28;20155;-87
2024/01/09 06:20:26;;;;;;;3.78;2.45;;;-7.50;97.70;;;;;;5018401;28;20108;-86
2024/01/09 06:22:52;;;;;;;5.75;4.25;;;-7.50;98.00;;;;;;5037751;28;20498;-85
2024/01/09 06:25:18;;;;;;;4.35;3.00;;;-7.50;98.20;;;;;;5011844;28;20090;-85
2024/01/09 06:27:44;;;;;;;6.97;3.47;;;-7.50;98.20;;;;;;5019812;28;20024;-85
2024/01/09 06:30:10;;;;;;;5.72;4.10;;;-7.50;98.40;;;;;;5035512;28;20033;-86
2024/01/09 06:32:36;;;;;;;4.63;3.08;;;-7.50;98.60;;;;;;5049137;28;20047;-84
2024/01/09 06:35:02;;;;;;;9.18;4.47;;;-7.50;98.60;;;;;;5040030;28;20033;-85
2024/01/09 06:37:27;;;;;;;4.80;3.45;;;-7.40;98.60;;;;;;5037640;28;20037;-85
2024/01/09 06:39:53;;;;;;;10.00;4.25;;;-7.40;98.50;;;;;;5038782;28;20053;-83
2024/01/09 06:42:19;;;;;;;4.53;3.05;;;-7.40;98.50;;;;;;5039673;28;20347;-85
2024/01/09 06:44:45;;;;;;;7.68;4.03;;;-7.30;98.60;;;;;;5050974;28;20101;-85
2024/01/09 06:47:11;;;;;;;10.07;4.55;;;-7.30;98.30;;;;;;5035715;28;20022;-85
2024/01/09 06:49:37;;;;;;;6.07;3.80;;;-7.30;98.30;;;;;;5042022;28;20032;-87
2024/01/09 06:52:03;;;;;;;3.75;3.03;;;-7.30;98.30;;;;;;5055520;28;20132;-86
2024/01/09 06:54:28;;;;;;;7.85;3.35;;;-7.30;98.10;;;;;;5036527;28;20009;-86
2024/01/09 06:56:54;;;;;;;5.07;3.38;;;-7.30;98.10;;;;;;5036913;28;20104;-86
2024/01/09 06:59:21;;;;;;;6.90;4.15;;;-7.30;98.20;;;;;;5036638;28;20014;-86
2024/01/09 07:01:46;;;;;;;4.05;2.45;;;-7.30;98.10;;;;;;5026694;28;20023;-85
2024/01/09 07:04:14;;;;;;;3.40;2.67;;;-7.30;97.90;;;;;;5023378;28;20120;-85
2024/01/09 07:06:40;;;;;;;4.88;3.25;;;-7.30;97.80;;;;;;5043490;28;20030;-88
2024/01/09 07:09:06;;;;;;;4.53;3.15;;;-7.30;98.00;;;;;;5038787;28;20141;-85
2024/01/09 07:11:32;;;;;;;3.97;3.03;;;-7.30;98.00;;;;;;5031671;28;20041;-87
2024/01/09 07:13:57;;;;;;;5.55;3.53;;;-7.30;98.10;;;;;;5034951;28;20025;-86
2024/01/09 07:16:23;;;;;;;11.98;3.50;;;-7.30;98.10;;;;;;5016119;28;20479;-85
2024/01/09 07:18:49;;;;;;;7.90;4.97;;;-7.30;98.20;;;;;;5037898;28;20013;-86
2024/01/09 07:21:15;;;;;;;5.68;4.20;;;-7.20;98.30;;;;;;5045819;28;20029;-89
2024/01/09 07:23:41;;;;;;;10.88;3.22;;;-7.20;98.20;;;;;;5018895;28;20022;-86
2024/01/09 07:26:07;;;;;;;6.65;4.15;;;-7.20;97.70;;;;;;5035260;28;20034;-86
2024/01/09 07:28:33;;;;;;;3.22;2.17;;;-7.10;97.70;;;;;;5032837;28;20052;-87
2024/01/09 07:30:59;;;;;;;6.13;3.42;;;-7.10;97.60;;;;;;5045854;28;20044;-85
2024/01/09 07:33:24;;;;;;;7.97;3.05;;;-7.10;97.90;;;;;;5054693;28;20096;-84
2024/01/09 07:35:50;;;;;;;4.85;2.95;;;-7.10;97.90;;;;;;5034604;28;20051;-85
2024/01/09 07:38:22;;;;;;;3.67;2.72;;;-7.00;97.10;;;;;;5046640;28;20033;-86
2024/01/09 07:40:48;;;;;;;4.57;2.50;;;-7.00;97.10;;;;;;5035372;28;20025;-86
2024/01/09 07:43:13;;;;;;;4.63;2.92;;;-7.00;97.00;;;;;;5034843;28;20032;-88
2024/01/09 07:45:39;;;;;;;3.08;2.20;;;-7.00;96.70;;;;;;5016368;28;20108;-85
2024/01/09 07:48:05;;;;;;;3.55;1.88;;;-7.00;96.70;;;;;;5038774;28;20037;-85
2024/01/09 07:50:32;;;;;;;4.95;2.55;;;-7.00;96.50;;;;;;5036707;28;20049;-86
2024/01/09 07:52:58;;;;;;;2.60;1.98;;;-7.10;96.00;;;;;;5035680;28;20017;-88
2024/01/09 07:55:25;;;;;;;2.95;2.00;;;-7.10;96.10;;;;;;5020085;28;20108;-87
2024/01/09 07:57:51;;;;;;;1.77;1.65;;;-7.00;96.00;;;;;;5037709;28;20014;-84
2024/01/09 08:00:17;;;;;;;8.02;2.22;;;-7.10;96.00;;;;;;5037270;28;20030;-85
2024/01/09 08:02:43;;;;;;;2.67;2.15;;;-7.10;96.10;;;;;;5019540;28;20640;-87
2024/01/09 08:05:09;;;;;;;4.28;3.00;;;-7.10;95.90;;;;;;5038973;28;20059;-85
2024/01/09 08:07:35;;;;;;;2.83;2.20;;;-7.20;95.80;;;;;;5022247;28;20025;-87
2024/01/09 08:10:00;;;;;;;6.20;2.47;;;-7.10;95.80;;;;;;5041475;28;20033;-85
2024/01/09 08:12:26;;;;;;;2.70;1.77;;;-7.20;95.60;;;;;;5022279;28;20018;-85
2024/01/09 08:14:53;;;;;;;2.25;2.00;;;-7.20;95.70;;;;;;5041990;28;20013;-85
2024/01/09 08:17:19;;;;;;;3.40;2.05;;;-7.20;95.60;;;;;;5028524;28;20088;-87
2024/01/09 08:19:45;;;;;;;5.25;2.53;;;-7.30;95.40;;;;;;5038331;28;20041;-85
2024/01/09 08:22:11;;;;;;;3.33;2.40;;;-7.30;95.40;;;;;;5036554;28;20482;-86
2024/01/09 08:24:37;;;;;;;4.45;3.25;;;-7.20;95.70;;;;;;5037122;28;20018;-87
2024/01/09 08:27:03;;;;;;;3.63;2.75;;;-7.30;95.40;;;;;;5018943;28;20117;-87
2024/01/09 08:29:29;;;;;;;3.65;2.30;;;-7.20;95.40;;;;;;5019985;28;20021;-86
2024/01/09 08:31:55;;;;;;;2.72;1.90;;;-7.20;95.10;;;;;;5042826;28;20063;-87
2024/01/09 08:34:21;;;;;;;4.22;2.38;;;-7.20;95.10;;;;;;5029506;28;20121;-87
2024/01/09 08:36:48;;;;;;;3.10;2.45;;;-7.20;95.40;;;;;;5033202;28;20538;-89
2024/01/09 08:39:14;;;;;;;2.63;1.83;;;-7.10;95.40;;;;;;5024878;28;20059;-84
2024/01/09 08:41:41;;;;;;;2.40;1.83;;;-7.10;95.20;;;;;;5040864;28;20024;-84
2024/01/09 08:44:07;;;;;;;2.20;1.63;;;-7.10;94.80;;;;;;5041004;28;20013;-84
2024/01/09 08:46:33;;;;;;;2.95;1.67;;;-7.10;94.40;;;;;;5038875;28;20079;-85
2024/01/09 08:49:00;;;;;;;3.08;2.10;;;-7.10;94.70;;;;;;5058922;28;20017;-85
2024/01/09 08:51:27;;;;;;;2.53;2.00;;;-7.10;94.00;;;;;;5025274;28;20057;-86
2024/01/09 08:53:53;;;;;;;;;;;-7.20;93.60;;;;;;5042047;28;20294;-85
2024/01/09 08:56:19;;;;;;;1.93;1.37;;;-7.20;93.90;;;;;;5042164;28;19905;-84
2024/01/09 08:58:45;;;;;;;2.80;1.77;;;-7.20;94.20;;;;;;5041757;28;20397;-85
2024/01/09 09:01:11;;;;;;;3.97;1.60;;;-7.20;94.50;;;;;;5018080;28;20026;-84
2024/01/09 09:03:37;;;;;;;2.22;2.00;;;-7.30;94.30;;;;;;5018370;28;20060;-86
2024/01/09 09:06:03;;;;;;;3.40;2.20;;;-7.30;93.90;;;;;;5035452;28;20021;-86
2024/01/09 09:08:30;;;;;;;4.00;2.47;;;-7.40;94.00;;;;;;5036261;28;20387;-86
2024/01/09 09:10:56;;;;;;;;;;;-7.30;94.40;;;;;;5036639;28;20037;-87
2024/01/09 09:13:22;;;;;;;4.68;2.88;;;-7.30;94.50;;;;;;5018871;28;19947;-85
2024/01/09 09:15:49;;;;;;;3.65;2.85;;;-7.30;94.20;;;;;;5035660;28;20440;-85
2024/01/09 09:18:15;;;;;;;4.87;2.80;;;-7.20;94.00;;;;;;5036245;28;20018;-86
2024/01/09 09:20:41;;;;;;;4.15;2.28;;;-7.20;94.40;;;;;;5040279;28;20096;-86
2024/01/09 09:23:07;;;;;;;4.32;2.92;;;-7.20;94.60;;;;;;5038733;28;20029;-86
2024/01/09 09:25:32;;;;;;;9.35;3.38;;;-7.00;95.10;;;;;;5050743;28;20018;-86
2024/01/09 09:27:58;;;;;;;8.32;2.95;;;-6.90;94.80;;;;;;5036832;28;20108;-84
2024/01/09 09:30:25;;;;;;;4.63;2.78;;;-6.80;95.00;;;;;;5035192;28;20033;-85
2024/01/09 09:32:51;;;;;;;5.60;3.28;;;-6.70;94.70;;;;;;5025892;28;20041;-86
2024/01/09 09:35:17;;;;;;;6.68;3.63;;;-6.60;94.90;;;;;;5042712;28;20029;-86
2024/01/09 09:37:46;;;;;;;6.15;3.42;;;-6.60;95.00;;;;;;5053315;28;20032;-85
2024/01/09 09:40:12;;;;;;;6.35;3.40;;;-6.50;94.80;;;;;;5037969;28;20030;-85
2024/01/09 09:42:41;;;;;;;6.25;3.75;;;-6.50;94.50;;;;;;5043375;28;20136;-87
2024/01/09 09:45:11;;;;;;;6.78;4.20;;;-6.50;94.10;;;;;;5055019;28;20010;-87
2024/01/09 09:47:39;;;;;;;11.63;7.00;;;-6.40;94.50;;;;;;5051418;28;20021;-85
2024/01/09 09:50:08;;;;;;;5.95;3.58;;;-6.30;94.90;;;;;;5037325;28;20131;-86
2024/01/09 09:52:39;;;;;;;5.95;4.15;;;-6.30;95.00;;;;;;5025426;28;20049;-86
2024/01/09 09:55:06;;;;;;;5.70;3.72;;;-6.20;94.60;;;;;;5042148;28;20451;-85
2024/01/09 09:57:32;;;;;;;10.82;5.28;;;-6.10;94.80;;;;;;5042052;28;20028;-87
2024/01/09 09:59:58;;;;;;;10.48;4.10;;;-6.00;94.90;;;;;;5036216;28;20025;-87
2024/01/09 10:02:28;;;;;;;7.22;4.25;;;-5.90;94.80;;;;;;5036509;28;20026;-86
2024/01/09 10:04:56;;;;;;;7.10;4.05;;;-5.80;94.80;;;;;;5044288;28;20027;-87
2024/01/09 10:07:22;;;;;;;6.63;3.63;;;-5.80;94.70;;;;;;5043357;28;20024;-86
2024/01/09 10:09:55;;;;;;;5.00;3.58;;;-5.80;94.80;;;;;;5017694;28;20394;-86
2024/01/09 10:12:24;;;;;;;4.10;3.00;;;-5.70;95.10;;;;;;5038796;28;20036;-88
2024/01/09 10:15:12;;;;;;;8.90;6.10;;;-5.70;95.10;;;;;;5030951;28;20443;-86
2024/01/09 10:17:40;;;;;;;4.10;3.33;;;-5.60;95.00;;;;;;5016483;28;20319;-86
2024/01/09 10:20:12;;;;;;;5.55;3.60;;;-5.50;95.20;;;;;;5017022;28;20386;-86
2024/01/09 10:22:39;;;;;;;9.52;3.85;;;-5.60;95.10;;;;;;5018721;28;20029;-86
2024/01/09 10:25:06;;;;;;;12.15;5.97;;;-5.60;95.20;;;;;;5049042;28;20026;-88
2024/01/09 10:27:36;;;;;;;3.95;2.78;;;-5.60;95.30;;;;;;5040936;28;20526;-86
2024/01/09 10:30:04;;;;;;;5.22;3.38;;;-5.60;95.30;;;;;;5028478;28;20025;-85
2024/01/09 10:32:33;;;;;;;8.00;3.50;;;-5.70;95.20;;;;;;5035681;28;20423;-86
2024/01/09 10:34:59;;;;;;;6.80;4.57;;;-5.80;95.10;;;;;;5034857;28;20030;-86
2024/01/09 10:37:25;;;;;;;7.60;3.67;;;-5.90;95.00;;;;;;5034502;28;20025;-87
2024/01/09 10:39:51;;;;;;;6.47;3.97;;;-5.90;95.10;;;;;;5017405;28;20021;-86
2024/01/09 10:42:18;;;;;;;6.05;3.42;;;-5.80;95.20;;;;;;5049023;28;20489;-87
2024/01/09 10:44:47;;;;;;;5.60;3.97;;;-5.80;95.20;;;;;;5034578;28;20025;-88
2024/01/09 10:47:14;;;;;;;5.63;3.22;;;-5.80;95.00;;;;;;5030310;28;20078;-86
2024/01/09 10:49:41;;;;;;;4.40;2.72;;;-5.80;95.10;;;;;;5033733;28;20041;-87
2024/01/09 10:52:14;;;;;;;5.93;3.75;;;-5.90;95.30;;;;;;5033851;28;20045;-86
2024/01/09 10:54:44;;;;;;;5.60;3.60;;;-5.90;95.30;;;;;;5027516;28;20036;-87
2024/01/09 10:57:14;;;;;;;8.23;3.88;;;-6.00;95.30;;;;;;5023834;28;20053;-86
2024/01/09 10:59:41;;;;;;;4.60;3.55;;;-6.00;95.40;;;;;;5038158;28;20076;-86
2024/01/09 11:02:21;;;;;;;7.68;3.17;;;-5.90;95.50;;;;;;5043386;28;20021;-87
2024/01/09 11:04:47;;;;;;;4.90;2.95;;;-5.90;95.70;;;;;;5036093;28;20028;-85
2024/01/09 11:07:17;;;;;;;5.45;3.40;;;-6.00;95.40;;;;;;5017892;28;20089;-87
2024/01/09 11:09:44;;;;;;;6.03;3.75;;;-5.90;95.40;;;;;;5036132;28;20014;-85
2024/01/09 11:12:15;;;;;;;2.95;2.40;;;-5.90;95.10;;;;;;5034360;28;20025;-87
2024/01/09 11:14:43;;;;;;;6.10;3.08;;;-6.00;95.10;;;;;;5018978;28;20044;-88
2024/01/09 11:17:12;;;;;;;5.28;3.10;;;-6.00;95.20;;;;;;5035699;28;20083;-88
2024/01/09 11:19:38;;;;;;;5.82;2.95;;;-6.00;95.20;;;;;;5013412;28;20171;-85
2024/01/09 11:22:14;;;;;;;5.07;3.20;;;-6.00;95.40;;;;;;5035479;28;20152;-85
2024/01/09 11:24:40;;;;;;;8.02;3.17;;;-6.00;95.50;;;;;;5017501;28;20075;-88
2024/01/09 11:27:13;;;;;;;5.20;2.78;;;-6.00;95.40;;;;;;5034249;28;20101;-86
2024/01/09 11:29:49;;;;;;;3.67;2.65;;;-6.00;95.50;;;;;;5038013;28;20026;-86
2024/01/09 11:32:16;;;;;;;4.63;2.73;;;-6.00;95.80;;;;;;5038041;28;20501;-88
2024/01/09 11:34:48;;;;;;;;;;;-6.00;95.70;;;;;;5052216;28;20453;-86
2024/01/09 11:37:20;;;;;;;5.05;3.65;;;-6.00;95.70;;;;;;5041494;28;19959;-85
2024/01/09 11:39:46;;;;;;;5.10;2.47;;;-6.00;95.70;;;;;;5037674;28;20360;-87
2024/01/09 11:42:12;;;;;;;4.72;3.20;;;-6.00;95.50;;;;;;5020854;28;20033;-87
2024/01/09 11:44:39;;;;;;;5.53;3.00;;;-6.00;95.70;;;;;;5038494;28;20025;-88
2024/01/09 11:47:05;;;;;;;6.13;3.47;;;-6.00;95.90;;;;;;5039037;28;20120;-88
2024/01/09 11:49:31;;;;;;;5.45;3.67;;;-6.00;96.00;;;;;;5024838;28;20022;-88
2024/01/09 11:51:57;;;;;;;7.57;2.85;;;-6.00;96.00;;;;;;5045439;28;20398;-87
2024/01/09 11:54:23;;;;;;;6.25;3.78;;;-6.00;96.10;;;;;;5037861;28;20017;-86
2024/01/09 11:56:50;;;;;;;6.43;3.83;;;-6.00;96.10;;;;;;5024896;28;20335;-88
2024/01/09 11:59:18;;;;;;;7.88;5.07;;;-5.90;96.10;;;;;;5039434;28;20032;-87
2024/01/09 12:01:47;;;;;;;7.05;3.95;;;-5.90;96.00;;;;;;5048931;28;20099;-88
2024/01/09 12:04:14;;;;;;;5.00;3.08;;;-5.80;96.10;;;;;;5019525;28;20033;-87
2024/01/09 12:06:41;;;;;;;5.60;3.30;;;-5.80;96.10;;;;;;5028611;28;20075;-88
2024/01/09 12:09:09;;;;;;;6.25;3.30;;;-5.80;96.20;;;;;;5057716;28;20045;-86
2024/01/09 12:11:36;;;;;;;8.15;3.88;;;-5.90;96.40;;;;;;5043950;28;20037;-86
2024/01/09 12:14:03;;;;;;;7.25;4.07;;;-5.90;96.60;;;;;;5052853;28;20017;-87
2024/01/09 12:16:30;;;;;;;8.20;4.97;;;-5.90;96.50;;;;;;5036495;28;20097;-86
2024/01/09 12:18:57;;;;;;;5.63;3.72;;;-5.90;96.50;;;;;;5039499;28;20036;-86
2024/01/09 12:21:26;;;;;;;7.30;2.90;;;-5.90;96.70;;;;;;5037995;28;20390;-84
2024/01/09 12:23:53;;;;;;;5.30;3.65;;;-5.90;96.60;;;;;;5040190;28;20021;-86
2024/01/09 12:26:20;;;;;;;;;;;-6.00;96.70;;;;;;5040053;28;20391;-86
2024/01/09 12:28:48;;;;;;;4.90;3.10;;;-6.00;96.70;;;;;;5019796;28;19911;-86
2024/01/09 12:31:18;;;;;;;9.48;4.75;;;-6.00;97.10;;;;;;5022310;28;20566;-88
2024/01/09 12:33:47;;;;;;;7.82;3.85;;;-6.00;97.30;;;;;;5040953;28;20040;-86
2024/01/09 12:36:14;;;;;;;7.25;3.90;;;-6.00;97.30;;;;;;5021666;28;20433;-86
2024/01/09 12:38:40;;;;;;;12.40;4.63;;;-6.00;97.40;;;;;;5052263;28;20088;-87
2024/01/09 12:41:06;;;;;;;9.15;4.53;;;-6.00;97.50;;;;;;5045180;28;20024;-89
2024/01/09 12:43:37;;;;;;;9.57;3.65;;;-5.90;97.40;;;;;;5046539;28;20040;-87
2024/01/09 12:46:04;;;;;;;7.25;4.15;;;-5.90;97.40;;;;;;5039383;28;20041;-87